Webcam Rollhalt 06

Webcam Rollhalt 24

 

Flugplatz - Wetter - Augsburg

[Quelle: ADDS]
METAR
EDMA 182020Z AUTO 13003KT 9999 NCD 00/M01 Q1020 =
EDMA 181700Z 1818/1903 VRB03KT 9999 BKN035
TAF
EDMA 181700Z 1818/1903 VRB03KT 9999 BKN035 =
SR / SS: 04:21 / 18:12 UTC (Augsburg 2021-04-18)

Flugplatz - Wetter - Laupheim

[Quelle: ADDS]
METAR
ETHL 182020Z AUTO 24003KT 9999 // ////// 05/02 Q1019 /// =
TAF
SR / SS: 04:25 / 18:16 UTC (Laupheim 2021-04-18)

Flugplatz - Wetter - Memmingen

[Quelle: ADDS]
METAR
EDJA 182020Z AUTO 16003KT 9999 // FEW027/// BKN056/// OVC074/// 03/01 Q1019 =
EDJA 181700Z 1818/1903 VRB03KT 9999 SCT020 BKN030
TAF
EDJA 181700Z 1818/1903 VRB03KT 9999 SCT020 BKN030 =
SR / SS: 04:24 / 18:13 UTC (Memmingen 2021-04-18)

Flugplatz - Wetter - Neuburg/Donau

[Quelle: ADDS]
METAR
ETSN 182020Z VRB02KT 9999 FEW040 BKN050 06/02 Q1019 BLU =
TAF
SR / SS: 04:18 / 18:10 UTC (Neuburg 2021-04-18)

Flugplatz - Wetter - Stuttgart

[Quelle: ADDS]
METAR
EDDS 182020Z VRB02KT CAVOK 06/02 Q1020 =
EDDS 181700Z 1818/1918 VRB02KT 9999 BKN040 PROB40 TEMPO 1906/1909 4000 -DZRA BKN014 BECMG 1910/1912 02005KT TEMPO 1910/1916 SHRA SCT025CB BECMG 1916/1918 VRB03KT
TAF
EDDS 181700Z 1818/1918 VRB02KT 9999 BKN040 PROB40 TEMPO 1906/1909 4000 -DZRA BKN014 BECMG 1910/1912 02005KT TEMPO 1910/1916 SHRA SCT025CB BECMG 1916/1918 VRB03KT =
SR / SS: 04:26 / 18:18 UTC (Stuttgart 2021-04-18)

Flugplatz - Wetter - Niederstetten

[Quelle: ADDS]
METAR
ETHN 182020Z 26004KT 9999 BKN070 07/03 Q1019 BLU =
TAF
SR / SS: 04:23 / 18:18 UTC (Niederstetten 2021-04-18)